Time;durP1;ratioP1;P1;durP2;ratioP2;P2;SDS_P1;SDS_P2;PMS_P1;PMS_P2;Temp;Humidity;BMP_temperature;BMP_pressure;BME280_temperature;BME280_humidity;BME280_pressure;Samples;Min_cycle;Max_cycle;Signal;HPM_P1;HPM_P2
2023/02/23 00:00:27;;;;;;;18.50;14.10;;;14.10;56.30;;;;;;5030182;28;20427;-52
2023/02/23 00:02:55;;;;;;;21.40;15.47;;;14.10;56.20;;;;;;5031326;28;20424;-51
2023/02/23 00:05:21;;;;;;;16.43;13.83;;;14.20;56.10;;;;;;5031310;28;20439;-51
2023/02/23 00:07:47;;;;;;;19.17;15.03;;;14.20;56.00;;;;;;5031096;28;20431;-51
2023/02/23 00:10:14;;;;;;;22.50;14.77;;;14.30;56.00;;;;;;5031185;28;20428;-51
2023/02/23 00:12:43;;;;;;;20.63;15.13;;;14.30;55.90;;;;;;5031395;28;20431;-52
2023/02/23 00:15:09;;;;;;;24.00;16.23;;;14.30;55.90;;;;;;5030814;28;20488;-52
2023/02/23 00:17:35;;;;;;;21.13;14.97;;;14.30;55.80;;;;;;5030912;28;20837;-52
2023/02/23 00:20:11;;;;;;;20.60;14.43;;;14.30;55.80;;;;;;5031010;28;20531;-52
2023/02/23 00:22:40;;;;;;;17.43;14.87;;;14.40;55.90;;;;;;5030828;28;20900;-52
2023/02/23 00:25:09;;;;;;;17.77;15.63;;;14.30;55.90;;;;;;5029536;28;21013;-51
2023/02/23 00:27:35;;;;;;;21.50;16.10;;;14.30;55.90;;;;;;5029382;28;20436;-52
2023/02/23 00:30:01;;;;;;;19.33;15.30;;;14.40;55.90;;;;;;5030819;28;20435;-52
2023/02/23 00:32:27;;;;;;;18.57;15.10;;;14.40;55.90;;;;;;5032402;28;20797;-51
2023/02/23 00:34:52;;;;;;;16.27;14.50;;;14.40;55.90;;;;;;5040085;28;20527;-53
2023/02/23 00:37:20;;;;;;;17.17;14.73;;;14.30;56.00;;;;;;5030580;28;20198;-52
2023/02/23 00:39:46;;;;;;;18.00;13.93;;;14.20;56.10;;;;;;5030732;28;20589;-48
2023/02/23 00:42:12;;;;;;;18.43;13.80;;;14.20;56.40;;;;;;5030626;28;20931;-51
2023/02/23 00:44:39;;;;;;;21.17;15.30;;;14.10;56.70;;;;;;5030463;28;20284;-52
2023/02/23 00:47:05;;;;;;;16.93;14.37;;;14.10;56.80;;;;;;5030594;28;20433;-51
2023/02/23 00:49:31;;;;;;;16.70;14.30;;;14.10;56.80;;;;;;5030626;28;20435;-52
2023/02/23 00:51:57;;;;;;;18.73;14.60;;;14.10;56.90;;;;;;5030684;28;20436;-51
2023/02/23 00:54:22;;;;;;;20.63;13.63;;;14.10;56.80;;;;;;5029142;28;20560;-50
2023/02/23 00:56:49;;;;;;;17.50;14.13;;;14.20;56.80;;;;;;5030099;28;20196;-49
2023/02/23 00:59:15;;;;;;;17.73;13.30;;;14.10;56.80;;;;;;5030399;28;20945;-51
2023/02/23 01:01:40;;;;;;;19.97;13.90;;;14.00;57.30;;;;;;5030218;28;20431;-51
2023/02/23 01:04:07;;;;;;;15.90;13.40;;;13.90;57.60;;;;;;5030395;28;20562;-52
2023/02/23 01:06:33;;;;;;;18.40;13.93;;;13.80;57.60;;;;;;5030013;28;20563;-52
2023/02/23 01:09:04;;;;;;;17.97;14.40;;;13.80;58.20;;;;;;5030621;28;20436;-49
2023/02/23 01:11:32;;;;;;;16.40;13.63;;;13.50;58.90;;;;;;5030151;28;20431;-52
2023/02/23 01:13:59;;;;;;;17.10;13.27;;;13.50;59.20;;;;;;5030394;28;20428;-51
2023/02/23 01:16:27;;;;;;;14.90;12.73;;;13.60;59.10;;;;;;5029816;28;20562;-51
2023/02/23 01:18:54;;;;;;;17.20;13.57;;;13.60;59.10;;;;;;5030307;28;20937;-52
2023/02/23 01:21:29;;;;;;;16.43;13.03;;;13.40;59.50;;;;;;5028554;28;20907;-49
2023/02/23 01:23:55;;;;;;;17.00;13.40;;;13.20;60.20;;;;;;5030640;28;20655;-51
2023/02/23 01:26:29;;;;;;;16.80;12.77;;;13.20;60.40;;;;;;5029700;28;20507;-50
2023/02/23 01:28:59;;;;;;;15.27;12.20;;;13.30;60.60;;;;;;5030164;28;20817;-48
2023/02/23 01:31:26;;;;;;;14.67;12.93;;;13.30;60.40;;;;;;5030264;28;21022;-51
2023/02/23 01:33:57;;;;;;;16.40;12.53;;;13.40;60.00;;;;;;5041942;28;20885;-51
2023/02/23 01:36:24;;;;;;;16.47;13.30;;;13.60;59.90;;;;;;5029734;28;20569;-51
2023/02/23 01:38:50;;;;;;;19.43;13.60;;;13.70;59.50;;;;;;5029886;28;20944;-50
2023/02/23 01:41:16;;;;;;;18.07;13.07;;;13.80;59.30;;;;;;5028854;28;20880;-47
2023/02/23 01:44:00;;;;;;;21.43;15.43;;;13.70;59.20;;;;;;5028572;28;20444;-49
2023/02/23 01:46:26;;;;;;;19.13;13.37;;;13.70;59.30;;;;;;5029484;28;20207;-52
2023/02/23 01:48:55;;;;;;;18.60;13.53;;;13.70;59.10;;;;;;5028600;28;20428;-49
2023/02/23 01:51:26;;;;;;;15.87;13.60;;;13.80;59.20;;;;;;5031223;28;20459;-51
2023/02/23 01:54:22;;;;;;;16.90;13.37;;;13.70;59.00;;;;;;5033894;28;20447;-52
2023/02/23 01:56:56;;;;;;;17.50;13.63;;;13.40;60.10;;;;;;5032844;28;20459;-52
2023/02/23 01:59:28;;;;;;;14.27;11.90;;;13.70;60.10;;;;;;5033754;28;20804;-50
2023/02/23 02:01:55;;;;;;;15.00;12.73;;;13.60;59.80;;;;;;5033749;28;20841;-52
2023/02/23 02:04:21;;;;;;;17.17;13.10;;;13.60;59.60;;;;;;5032632;28;20416;-48
2023/02/23 02:06:52;;;;;;;18.20;13.23;;;13.60;59.50;;;;;;5033182;28;20436;-52
2023/02/23 02:09:18;;;;;;;15.77;13.60;;;13.30;60.60;;;;;;5033850;28;20436;-52
2023/02/23 02:11:45;;;;;;;16.60;13.37;;;13.20;61.00;;;;;;5033607;28;20857;-50
2023/02/23 02:14:29;;;;;;;16.57;13.60;;;13.30;61.10;;;;;;5031699;28;20428;-52
2023/02/23 02:17:14;;;;;;;17.47;14.40;;;13.50;60.90;;;;;;5033497;28;20794;-49
2023/02/23 02:19:52;;;;;;;18.40;13.30;;;13.50;60.60;;;;;;5033496;28;20519;-50
2023/02/23 02:22:17;;;;;;;19.63;14.03;;;13.60;60.30;;;;;;5033211;28;20493;-51
2023/02/23 02:25:20;;;;;;;20.40;14.13;;;13.60;60.20;;;;;;5032866;28;20432;-47
2023/02/23 02:28:23;;;;;;;20.57;14.57;;;13.60;60.20;;;;;;5032947;28;20211;-49
2023/02/23 02:30:58;;;;;;;17.60;12.63;;;13.60;60.30;;;;;;5032879;28;20475;-50
2023/02/23 02:33:31;;;;;;;16.73;14.30;;;13.60;60.40;;;;;;5042396;28;20978;-49
2023/02/23 02:36:17;;;;;;;17.00;13.80;;;13.70;60.20;;;;;;5033368;28;20569;-48
2023/02/23 02:39:22;;;;;;;17.50;13.83;;;13.70;60.20;;;;;;5032940;28;20436;-48
2023/02/23 02:42:16;;;;;;;20.00;14.47;;;13.70;60.00;;;;;;5031341;28;20884;-49
2023/02/23 02:44:50;;;;;;;15.87;13.53;;;13.40;60.70;;;;;;5032713;28;20602;-51
2023/02/23 02:47:25;;;;;;;20.20;15.50;;;13.40;61.10;;;;;;5032719;28;20482;-51
2023/02/23 02:50:01;;;;;;;16.30;13.83;;;13.40;61.10;;;;;;5033132;28;20485;-47
2023/02/23 02:52:39;;;;;;;17.90;14.43;;;13.50;61.00;;;;;;5032926;28;20432;-51
2023/02/23 02:55:22;;;;;;;20.23;14.60;;;13.50;60.80;;;;;;5032203;28;20471;-52
2023/02/23 02:57:50;;;;;;;19.70;14.43;;;13.50;61.10;;;;;;5032562;28;20436;-48
2023/02/23 04:18:02;;;;;;;22.23;17.10;;;13.60;63.40;;;;;;5031217;28;20435;-49
2023/02/23 04:20:28;;;;;;;22.60;18.63;;;13.50;63.50;;;;;;5031046;28;20428;-48
2023/02/23 04:22:54;;;;;;;22.53;17.63;;;13.50;63.60;;;;;;5031013;28;20851;-48
2023/02/23 04:25:21;;;;;;;25.30;18.10;;;13.40;64.00;;;;;;5030870;28;20596;-48
2023/02/23 04:27:48;;;;;;;23.40;16.77;;;13.40;64.40;;;;;;5030855;28;20212;-47
2023/02/23 04:30:14;;;;;;;23.23;17.70;;;13.50;64.10;;;;;;5029376;28;20476;-47
2023/02/23 04:32:39;;;;;;;22.30;17.87;;;13.50;63.90;;;;;;5034322;28;20427;-52
2023/02/23 04:35:06;;;;;;;23.90;17.97;;;13.50;63.70;;;;;;5038378;28;20540;-49
2023/02/23 04:37:32;;;;;;;20.30;17.13;;;13.60;63.60;;;;;;5030702;28;20797;-47
2023/02/23 04:39:57;;;;;;;22.23;17.47;;;13.70;63.20;;;;;;5030924;28;20424;-51
2023/02/23 04:42:23;;;;;;;24.80;17.97;;;13.70;63.30;;;;;;5030863;28;20198;-50
2023/02/23 04:44:49;;;;;;;21.53;17.60;;;13.70;63.10;;;;;;5030327;28;20192;-48
2023/02/23 04:47:15;;;;;;;24.90;17.17;;;13.70;63.40;;;;;;5030786;28;20302;-47
2023/02/23 04:49:41;;;;;;;19.27;16.77;;;13.60;63.50;;;;;;5030969;28;20185;-47
2023/02/23 04:52:06;;;;;;;21.53;17.20;;;13.70;63.50;;;;;;5030646;28;20769;-48
2023/02/23 04:54:32;;;;;;;20.83;17.23;;;13.60;63.60;;;;;;5030145;28;20435;-47
2023/02/23 04:56:58;;;;;;;24.20;17.40;;;13.60;63.60;;;;;;5028819;28;20276;-48
2023/02/23 04:59:23;;;;;;;21.30;17.07;;;13.70;63.70;;;;;;5030617;28;20200;-47
2023/02/23 05:01:49;;;;;;;22.90;17.57;;;13.50;64.40;;;;;;5030499;28;20216;-47
2023/02/23 05:04:14;;;;;;;25.63;17.80;;;13.60;64.30;;;;;;5030036;28;20238;-47
2023/02/23 05:06:41;;;;;;;22.90;17.10;;;13.60;64.30;;;;;;5030403;28;20193;-47
2023/02/23 05:09:07;;;;;;;20.10;16.67;;;13.70;64.30;;;;;;5030324;28;20231;-48
2023/02/23 05:11:32;;;;;;;22.27;17.80;;;13.60;64.10;;;;;;5030104;28;20435;-47
2023/02/23 05:13:58;;;;;;;19.80;16.93;;;13.50;64.40;;;;;;5030506;28;20284;-48
2023/02/23 05:16:24;;;;;;;30.63;17.20;;;13.50;64.40;;;;;;5029953;28;20221;-49
2023/02/23 05:18:49;;;;;;;23.60;17.00;;;13.70;64.40;;;;;;5030469;28;20200;-48
2023/02/23 05:21:15;;;;;;;21.63;16.83;;;13.70;63.70;;;;;;5029984;28;20201;-49
2023/02/23 05:23:40;;;;;;;22.60;16.03;;;13.80;63.60;;;;;;5028974;28;20593;-48
2023/02/23 05:26:08;;;;;;;21.57;17.90;;;13.90;63.20;;;;;;5030696;28;20577;-47
2023/02/23 05:28:36;;;;;;;21.73;17.50;;;14.00;62.90;;;;;;5034483;28;20201;-48
2023/02/23 05:31:03;;;;;;;23.43;16.90;;;14.00;62.50;;;;;;5033960;28;20973;-48
2023/02/23 05:33:30;;;;;;;19.57;17.53;;;14.10;62.40;;;;;;5044383;28;20426;-47
2023/02/23 05:35:57;;;;;;;20.13;17.70;;;14.10;62.20;;;;;;5034494;28;20494;-49
2023/02/23 05:38:22;;;;;;;22.30;16.87;;;14.10;61.90;;;;;;5034173;28;20919;-49
2023/02/23 05:40:48;;;;;;;20.73;16.60;;;14.10;62.20;;;;;;5034005;28;20435;-48
2023/02/23 05:43:14;;;;;;;20.77;16.40;;;14.10;62.00;;;;;;5033913;28;20193;-48
2023/02/23 05:45:40;;;;;;;20.43;17.20;;;14.10;61.80;;;;;;5033465;28;20224;-47
2023/02/23 05:48:07;;;;;;;20.27;16.13;;;14.20;61.70;;;;;;5034013;28;20334;-48
2023/02/23 05:50:33;;;;;;;18.33;16.37;;;14.20;61.60;;;;;;5032469;28;20424;-47
2023/02/23 05:52:58;;;;;;;22.67;15.37;;;14.20;61.70;;;;;;5033892;28;20519;-47
2023/02/23 05:55:24;;;;;;;20.70;16.60;;;14.20;61.70;;;;;;5033377;28;20232;-48
2023/02/23 05:57:50;;;;;;;23.50;17.40;;;14.10;62.00;;;;;;5033812;28;20189;-47
2023/02/23 06:00:17;;;;;;;22.97;17.17;;;14.10;61.90;;;;;;5033953;28;20207;-48
2023/02/23 06:02:43;;;;;;;21.87;17.07;;;14.10;62.00;;;;;;5033651;28;20427;-47
2023/02/23 06:05:11;;;;;;;21.33;16.50;;;14.20;62.00;;;;;;5033411;28;20430;-48
2023/02/23 06:07:37;;;;;;;28.30;20.30;;;14.20;61.90;;;;;;5033607;28;20420;-47
2023/02/23 06:10:03;;;;;;;26.07;20.67;;;14.30;61.70;;;;;;5033356;28;20494;-48
2023/02/23 06:12:29;;;;;;;22.60;18.47;;;14.30;61.50;;;;;;5033505;28;20201;-47
2023/02/23 06:14:55;;;;;;;19.60;17.50;;;14.30;61.50;;;;;;5033156;28;20962;-48
2023/02/23 06:17:21;;;;;;;21.27;17.20;;;14.30;61.60;;;;;;5032180;28;20503;-47
2023/02/23 06:19:47;;;;;;;25.00;17.33;;;14.30;61.60;;;;;;5033305;28;20493;-48
2023/02/23 06:22:13;;;;;;;18.70;15.47;;;14.30;61.60;;;;;;5033425;28;20201;-48
2023/02/23 06:24:38;;;;;;;18.77;16.43;;;14.30;61.70;;;;;;5033010;28;20186;-47
2023/02/23 06:27:04;;;;;;;19.93;15.40;;;14.30;61.90;;;;;;5033449;28;20197;-48
2023/02/23 06:29:29;;;;;;;22.97;16.60;;;14.30;61.80;;;;;;5033612;28;20193;-47
2023/02/23 06:31:55;;;;;;;19.87;16.40;;;14.30;61.60;;;;;;5033458;28;20583;-49
2023/02/23 06:34:20;;;;;;;20.53;17.07;;;14.30;61.70;;;;;;5044310;28;20231;-48
2023/02/23 06:36:46;;;;;;;20.93;14.80;;;14.30;61.70;;;;;;5032704;28;20228;-47
2023/02/23 06:39:11;;;;;;;20.70;16.80;;;14.30;61.60;;;;;;5032882;28;20588;-48
2023/02/23 06:41:37;;;;;;;20.50;15.50;;;14.40;61.70;;;;;;5033091;28;20236;-47
2023/02/23 06:44:03;;;;;;;23.77;17.00;;;14.30;61.70;;;;;;5031175;28;20617;-47
2023/02/23 06:46:29;;;;;;;23.60;16.73;;;14.30;61.80;;;;;;5032720;28;20193;-48
2023/02/23 06:48:55;;;;;;;18.93;15.60;;;14.40;61.80;;;;;;5033132;28;20424;-48
2023/02/23 06:51:22;;;;;;;21.03;15.53;;;14.40;61.80;;;;;;5033250;28;20553;-47
2023/02/23 06:53:48;;;;;;;17.67;15.60;;;14.40;61.90;;;;;;5032676;28;20463;-48
2023/02/23 06:56:13;;;;;;;18.03;15.40;;;14.30;61.90;;;;;;5032279;28;20537;-47
2023/02/23 06:58:42;;;;;;;21.50;16.47;;;14.30;62.10;;;;;;5032740;28;20638;-48
2023/02/23 07:01:08;;;;;;;18.37;15.37;;;14.30;62.30;;;;;;5032825;28;20277;-47
2023/02/23 07:03:34;;;;;;;17.97;15.07;;;14.30;62.40;;;;;;5032729;28;20531;-47
2023/02/23 07:06:01;;;;;;;19.53;16.93;;;14.30;62.40;;;;;;5032185;28;20435;-48
2023/02/23 07:08:27;;;;;;;20.10;17.37;;;14.40;62.40;;;;;;5032584;28;20454;-47
2023/02/23 07:10:52;;;;;;;19.23;15.87;;;14.20;62.50;;;;;;5030863;28;20422;-47
2023/02/23 07:13:19;;;;;;;21.73;16.00;;;14.20;62.70;;;;;;5032518;28;20702;-48
2023/02/23 07:15:45;;;;;;;20.17;16.07;;;14.10;62.70;;;;;;5032159;28;20233;-47
2023/02/23 07:18:10;;;;;;;23.53;16.30;;;14.10;63.20;;;;;;5032221;28;20931;-47
2023/02/23 07:20:36;;;;;;;22.27;18.10;;;14.00;63.30;;;;;;5032262;28;20204;-47
2023/02/23 07:23:01;;;;;;;22.77;16.60;;;14.00;63.30;;;;;;5032280;28;20286;-48
2023/02/23 07:25:28;;;;;;;18.93;16.90;;;13.90;63.50;;;;;;5031943;28;20189;-47
2023/02/23 07:27:54;;;;;;;24.17;18.10;;;13.50;65.00;;;;;;5032402;28;20576;-50
2023/02/23 07:30:23;;;;;;;22.73;17.93;;;13.50;66.40;;;;;;5032303;28;20464;-47
2023/02/23 07:32:51;;;;;;;21.63;17.80;;;13.60;65.70;;;;;;5036873;28;20674;-50
2023/02/23 07:35:17;;;;;;;24.10;18.47;;;13.70;65.30;;;;;;5037714;28;20574;-48
2023/02/23 07:37:43;;;;;;;28.40;16.80;;;13.80;65.00;;;;;;5030424;28;20908;-48
2023/02/23 07:40:09;;;;;;;22.67;16.87;;;13.90;64.70;;;;;;5031993;28;20431;-47
2023/02/23 07:42:35;;;;;;;19.57;16.70;;;14.00;64.60;;;;;;5031714;28;20199;-50
2023/02/23 07:45:00;;;;;;;19.97;16.63;;;14.10;64.50;;;;;;5030980;28;20515;-48
2023/02/23 07:47:30;;;;;;;22.57;16.93;;;14.10;64.10;;;;;;5031650;28;20209;-49
2023/02/23 07:50:02;;;;;;;21.80;18.30;;;14.20;64.00;;;;;;5029383;28;20609;-49
2023/02/23 07:52:28;;;;;;;21.87;19.27;;;14.20;63.80;;;;;;5031658;28;20452;-47
2023/02/23 07:54:53;;;;;;;20.83;16.87;;;14.20;63.90;;;;;;5031327;28;20750;-49
2023/02/23 07:57:20;;;;;;;24.37;18.97;;;14.20;64.00;;;;;;5031522;28;20286;-49
2023/02/23 07:59:49;;;;;;;23.17;19.33;;;14.20;64.00;;;;;;5031497;28;20193;-46
2023/02/23 08:02:15;;;;;;;25.00;19.87;;;14.20;64.00;;;;;;5031486;28;20447;-47
2023/02/23 08:04:42;;;;;;;22.90;18.57;;;14.20;64.10;;;;;;5029223;28;20490;-47
2023/02/23 08:07:08;;;;;;;30.47;20.93;;;14.20;64.30;;;;;;5031439;28;20424;-47
2023/02/23 08:09:34;;;;;;;30.23;20.90;;;14.20;64.40;;;;;;5031166;28;20506;-50
2023/02/23 08:12:01;;;;;;;23.90;19.47;;;14.20;64.40;;;;;;5031235;28;20488;-47
2023/02/23 08:14:26;;;;;;;24.77;19.33;;;14.30;64.30;;;;;;5030686;28;20193;-50
2023/02/23 08:16:52;;;;;;;22.77;19.07;;;14.30;64.10;;;;;;5031163;28;20501;-49
2023/02/23 08:19:21;;;;;;;22.60;18.20;;;14.30;64.00;;;;;;5031322;28;20193;-49
2023/02/23 08:21:48;;;;;;;26.80;21.10;;;14.30;64.20;;;;;;5031097;28;20331;-49
2023/02/23 08:24:14;;;;;;;24.07;19.07;;;14.30;64.60;;;;;;5030560;28;20455;-49
2023/02/23 08:26:40;;;;;;;23.93;19.23;;;14.30;64.50;;;;;;5031061;28;20509;-49
2023/02/23 08:29:06;;;;;;;24.67;19.53;;;14.40;64.50;;;;;;5030853;28;20439;-49
2023/02/23 08:31:32;;;;;;;20.00;17.90;;;14.50;64.70;;;;;;5029081;28;20477;-49
2023/02/23 08:33:58;;;;;;;24.53;18.87;;;14.50;64.40;;;;;;5042138;28;20420;-49
2023/02/23 08:36:24;;;;;;;24.37;18.30;;;14.50;64.60;;;;;;5030822;28;20252;-49
2023/02/23 08:38:53;;;;;;;24.53;18.03;;;14.60;64.40;;;;;;5030747;28;20467;-49
2023/02/23 08:41:19;;;;;;;22.70;19.37;;;14.60;64.40;;;;;;5030715;28;20439;-49
2023/02/23 08:43:45;;;;;;;26.00;18.60;;;14.70;64.30;;;;;;5030696;28;20432;-50
2023/02/23 08:46:11;;;;;;;24.53;18.27;;;14.80;64.00;;;;;;5030716;28;20881;-49
2023/02/23 08:48:39;;;;;;;22.60;18.30;;;14.80;64.00;;;;;;5030890;28;20456;-48
2023/02/23 08:51:05;;;;;;;24.47;17.30;;;14.90;64.10;;;;;;5030495;28;20200;-49
2023/02/23 08:53:31;;;;;;;22.87;17.43;;;15.00;64.00;;;;;;5030425;28;20823;-50
2023/02/23 08:55:59;;;;;;;22.33;17.83;;;15.00;64.10;;;;;;5030128;28;20864;-49
2023/02/23 08:58:25;;;;;;;21.83;18.70;;;15.00;64.40;;;;;;5028945;28;20416;-51
2023/02/23 09:00:52;;;;;;;20.90;17.30;;;15.10;64.50;;;;;;5030628;28;20467;-49
2023/02/23 09:03:18;;;;;;;22.60;16.80;;;15.10;64.50;;;;;;5030215;28;20530;-49
2023/02/23 09:05:44;;;;;;;20.90;17.00;;;15.10;64.50;;;;;;5029991;28;20436;-49
2023/02/23 09:08:11;;;;;;;18.50;16.43;;;15.10;64.50;;;;;;5030547;28;20938;-49
2023/02/23 09:10:37;;;;;;;20.07;15.83;;;15.20;64.60;;;;;;5030274;28;20201;-50
2023/02/23 09:13:02;;;;;;;25.43;18.90;;;15.20;64.60;;;;;;5030325;28;20453;-49
2023/02/23 09:15:28;;;;;;;23.83;18.00;;;15.10;64.70;;;;;;5029869;28;20286;-49
2023/02/23 09:17:53;;;;;;;21.80;18.23;;;15.10;64.80;;;;;;5030145;28;20280;-50
2023/02/23 09:20:19;;;;;;;25.13;18.80;;;15.20;64.50;;;;;;5028955;28;20266;-49
2023/02/23 09:22:48;;;;;;;19.80;17.00;;;15.30;64.10;;;;;;5030397;28;20224;-49
2023/02/23 09:25:18;;;;;;;21.50;17.47;;;15.40;64.00;;;;;;5028378;28;20810;-49
2023/02/23 09:27:45;;;;;;;21.67;16.80;;;15.50;63.90;;;;;;5030338;28;20446;-53
2023/02/23 09:30:16;;;;;;;21.63;16.60;;;15.50;63.80;;;;;;5030368;28;20468;-53
2023/02/23 09:32:44;;;;;;;21.00;16.47;;;15.60;63.60;;;;;;5033939;28;20443;-54
2023/02/23 09:35:10;;;;;;;25.17;18.27;;;15.60;63.30;;;;;;5037395;28;20468;-50
2023/02/23 09:37:35;;;;;;;19.60;16.60;;;15.40;64.00;;;;;;5030017;28;20822;-53
2023/02/23 09:40:02;;;;;;;21.20;15.70;;;15.50;64.10;;;;;;5030794;28;20196;-53
2023/02/23 09:42:38;;;;;;;22.07;16.10;;;15.50;63.80;;;;;;5030526;28;20205;-53
2023/02/23 09:45:19;;;;;;;18.23;14.83;;;15.60;63.60;;;;;;5029769;28;20514;-54
2023/02/23 09:47:58;;;;;;;16.90;13.70;;;15.80;63.20;;;;;;5028853;28;21020;-54
2023/02/23 09:50:28;;;;;;;15.47;12.60;;;15.90;62.90;;;;;;5029987;28;20436;-52
2023/02/23 09:53:12;;;;;;;20.83;12.90;;;15.90;62.40;;;;;;5028702;28;20494;-53
2023/02/23 09:55:40;;;;;;;14.73;11.90;;;15.90;62.40;;;;;;5029551;28;20483;-51
2023/02/23 09:58:20;;;;;;;14.07;11.20;;;16.00;62.30;;;;;;5029876;28;20427;-53
2023/02/23 10:01:09;;;;;;;15.20;10.70;;;16.00;62.10;;;;;;5029750;28;20530;-49
2023/02/23 10:03:45;;;;;;;15.87;11.23;;;16.10;61.90;;;;;;5029568;28;20490;-49
2023/02/23 10:06:16;;;;;;;13.67;10.30;;;16.20;61.70;;;;;;5029948;28;20438;-51
2023/02/23 10:08:53;;;;;;;14.90;12.77;;;16.20;61.10;;;;;;5029882;28;20424;-51
2023/02/23 10:11:32;;;;;;;13.60;11.03;;;16.10;61.00;;;;;;5030078;28;20530;-52
2023/02/23 10:14:09;;;;;;;16.20;11.70;;;15.90;61.40;;;;;;5033277;28;20784;-50
2023/02/23 10:17:00;;;;;;;11.00;9.13;;;16.00;62.00;;;;;;5033297;28;20498;-50
2023/02/23 10:19:35;;;;;;;12.20;10.70;;;16.20;61.90;;;;;;5031938;28;20915;-49
2023/02/23 10:22:07;;;;;;;14.57;10.80;;;16.30;61.80;;;;;;5033325;28;20450;-50
2023/02/23 10:24:43;;;;;;;11.00;9.40;;;16.40;61.50;;;;;;5032904;28;20954;-53
2023/02/23 10:27:15;;;;;;;12.73;9.90;;;16.50;60.50;;;;;;5033478;28;20431;-49
2023/02/23 10:29:50;;;;;;;11.67;9.47;;;16.40;60.80;;;;;;5033346;28;20432;-51
2023/02/23 10:32:24;;;;;;;13.13;10.80;;;16.50;60.90;;;;;;5033269;28;20833;-52
2023/02/23 10:34:55;;;;;;;14.73;11.40;;;16.70;60.00;;;;;;5043181;28;20925;-52
2023/02/23 10:37:22;;;;;;;11.60;10.40;;;16.90;60.10;;;;;;5033338;28;20428;-53
2023/02/23 10:39:51;;;;;;;14.20;10.00;;;17.00;59.70;;;;;;5032978;28;20436;-53
2023/02/23 10:42:30;;;;;;;11.33;8.87;;;16.90;59.00;;;;;;5033172;28;20840;-53
2023/02/23 10:44:59;;;;;;;12.87;8.97;;;16.70;59.40;;;;;;5032753;28;20439;-53
2023/02/23 10:47:28;;;;;;;9.83;7.43;;;16.80;60.00;;;;;;5031490;28;20446;-53
2023/02/23 10:49:56;;;;;;;22.80;8.40;;;16.90;58.80;;;;;;5033240;28;20832;-53
2023/02/23 10:52:33;;;;;;;10.33;7.60;;;17.10;58.40;;;;;;5033168;28;20475;-53
2023/02/23 10:55:04;;;;;;;10.07;8.53;;;17.30;58.00;;;;;;5032540;28;20517;-51
2023/02/23 10:57:32;;;;;;;9.10;7.80;;;17.40;57.40;;;;;;5031549;28;20440;-53
2023/02/23 11:00:08;;;;;;;14.63;8.80;;;17.60;57.30;;;;;;5031563;28;20771;-53
2023/02/23 11:02:37;;;;;;;9.70;7.97;;;17.80;56.90;;;;;;5032777;28;20432;-52
2023/02/23 11:05:04;;;;;;;12.43;8.50;;;17.90;57.00;;;;;;5032218;28;20807;-53
2023/02/23 11:07:32;;;;;;;11.03;7.50;;;17.80;56.40;;;;;;5032702;28;20425;-54
2023/02/23 11:10:17;;;;;;;8.50;7.67;;;18.00;56.30;;;;;;5031437;28;20455;-50
2023/02/23 11:12:43;;;;;;;11.40;8.07;;;18.00;56.10;;;;;;5030855;28;20919;-52
2023/02/23 11:15:42;;;;;;;9.53;6.90;;;18.20;56.00;;;;;;5032033;28;20470;-50
2023/02/23 11:18:20;;;;;;;9.10;6.00;;;18.20;55.60;;;;;;5028414;28;20205;-53
2023/02/23 11:20:47;;;;;;;7.43;5.00;;;18.10;55.30;;;;;;5032417;28;20832;-52
2023/02/23 11:23:34;;;;;;;5.17;4.67;;;18.10;55.10;;;;;;5031480;28;20931;-50
2023/02/23 11:26:03;;;;;;;7.80;5.80;;;18.30;55.10;;;;;;5032195;28;20826;-53
2023/02/23 11:28:40;;;;;;;9.57;6.90;;;18.30;54.70;;;;;;5032530;28;20439;-51
2023/02/23 11:31:17;;;;;;;9.27;8.43;;;18.30;54.40;;;;;;5030882;28;20836;-50
2023/02/23 11:33:45;;;;;;;12.03;6.10;;;18.40;54.50;;;;;;5042641;28;20427;-47
2023/02/23 11:36:23;;;;;;;5.53;4.20;;;18.50;54.20;;;;;;5032254;28;20487;-53
2023/02/23 11:39:07;;;;;;;5.53;4.20;;;18.50;54.00;;;;;;5032360;28;20772;-53
2023/02/23 11:41:34;;;;;;;5.93;4.20;;;18.50;53.70;;;;;;5031083;28;20424;-50
2023/02/23 11:44:01;;;;;;;6.50;4.00;;;18.50;53.50;;;;;;5031444;28;20993;-51
2023/02/23 11:46:30;;;;;;;8.13;3.87;;;18.40;53.30;;;;;;5031914;28;20432;-50
2023/02/23 11:48:59;;;;;;;8.40;3.67;;;18.50;53.50;;;;;;5031967;28;20433;-50
2023/02/23 11:51:34;;;;;;;4.23;3.53;;;18.50;52.70;;;;;;5032343;28;20950;-51
2023/02/23 11:54:01;;;;;;;4.10;3.37;;;18.40;53.00;;;;;;5031517;28;20831;-53
2023/02/23 11:56:29;;;;;;;6.33;3.30;;;18.50;53.00;;;;;;5031692;28;20530;-50
2023/02/23 11:59:03;;;;;;;7.43;3.53;;;18.60;53.10;;;;;;5032013;28;20483;-53
2023/02/23 12:01:45;;;;;;;8.23;3.63;;;18.80;53.20;;;;;;5030213;28;20448;-50
2023/02/23 12:04:33;;;;;;;7.30;3.50;;;18.80;51.90;;;;;;5031454;28;20457;-52
2023/02/23 12:07:23;;;;;;;6.70;3.43;;;18.80;51.70;;;;;;5017104;28;20424;-53
2023/02/23 12:10:06;;;;;;;3.60;3.30;;;18.90;51.60;;;;;;5031437;28;20420;-50
2023/02/23 12:12:39;;;;;;;4.07;3.63;;;19.00;52.20;;;;;;5030187;28;20478;-49
2023/02/23 12:15:16;;;;;;;8.67;3.17;;;19.10;51.70;;;;;;5029817;28;21032;-50
2023/02/23 12:17:52;;;;;;;4.20;3.53;;;19.20;51.40;;;;;;5031234;28;20428;-51
2023/02/23 12:20:23;;;;;;;3.70;2.70;;;19.30;51.50;;;;;;5031177;28;20793;-50
2023/02/23 12:23:07;;;;;;;6.87;2.77;;;19.40;50.70;;;;;;5031080;28;20432;-51
2023/02/23 12:25:58;;;;;;;5.03;2.40;;;19.40;50.20;;;;;;5031096;28;20431;-50
2023/02/23 12:28:30;;;;;;;5.40;3.10;;;19.40;50.40;;;;;;5031185;28;20804;-50
2023/02/23 12:31:17;;;;;;;5.03;2.97;;;19.50;49.50;;;;;;5031288;28;20484;-52
2023/02/23 12:33:51;;;;;;;5.60;2.93;;;19.40;49.50;;;;;;5040435;28;20501;-50
2023/02/23 12:36:41;;;;;;;6.00;3.70;;;19.50;49.20;;;;;;5030657;28;20967;-52
2023/02/23 12:39:19;;;;;;;6.60;2.83;;;19.50;48.80;;;;;;5030915;28;20922;-50
2023/02/23 12:41:55;;;;;;;4.77;2.97;;;19.20;49.10;;;;;;5031021;28;20436;-51
2023/02/23 12:44:49;;;;;;;4.07;3.23;;;19.40;49.60;;;;;;5030700;28;20428;-51
2023/02/23 12:47:43;;;;;;;3.90;2.83;;;19.50;49.40;;;;;;5030456;28;20780;-53
2023/02/23 12:50:30;;;;;;;7.50;3.53;;;19.70;49.00;;;;;;5029526;28;20447;-51
2023/02/23 12:53:00;;;;;;;3.67;2.87;;;19.80;48.50;;;;;;5030617;28;20531;-52
2023/02/23 12:55:38;;;;;;;4.73;3.10;;;19.80;47.70;;;;;;5030051;28;20498;-51
2023/02/23 12:58:20;;;;;;;5.60;3.10;;;19.90;47.80;;;;;;5030617;28;20523;-52
2023/02/23 13:01:05;;;;;;;5.80;3.10;;;19.80;47.00;;;;;;5029356;28;20436;-51
2023/02/23 13:03:36;;;;;;;7.73;4.10;;;19.70;47.30;;;;;;5030162;28;20490;-50
2023/02/23 13:06:29;;;;;;;7.57;3.50;;;19.80;47.60;;;;;;5030560;28;20935;-53
2023/02/23 13:09:16;;;;;;;3.20;2.80;;;19.90;48.00;;;;;;5030835;28;20432;-50
2023/02/23 13:11:57;;;;;;;8.33;3.50;;;19.70;47.20;;;;;;5029133;28;20444;-53
2023/02/23 13:14:31;;;;;;;4.57;3.67;;;19.70;47.00;;;;;;5030266;28;20427;-50
2023/02/23 13:17:10;;;;;;;4.53;3.20;;;19.60;46.80;;;;;;5030255;28;20494;-51
2023/02/23 13:19:52;;;;;;;5.20;3.50;;;19.80;47.70;;;;;;5030166;28;20901;-50
2023/02/23 13:22:31;;;;;;;7.23;4.40;;;19.80;47.40;;;;;;5030141;28;20856;-50
2023/02/23 13:25:00;;;;;;;5.00;3.73;;;19.90;47.30;;;;;;5029924;28;20440;-53
2023/02/23 13:27:29;;;;;;;9.43;5.03;;;19.90;47.30;;;;;;5028596;28;20788;-49
2023/02/23 13:29:58;;;;;;;5.53;4.83;;;19.80;48.70;;;;;;5030441;28;20467;-51
2023/02/23 13:32:35;;;;;;;9.90;6.27;;;19.80;49.50;;;;;;5031526;28;20477;-50
2023/02/23 13:35:16;;;;;;;5.10;4.60;;;19.80;49.70;;;;;;5038466;28;20432;-50
2023/02/23 13:37:52;;;;;;;6.10;4.90;;;19.60;49.80;;;;;;5030107;28;20498;-52
2023/02/23 13:40:43;;;;;;;7.90;5.20;;;19.50;49.90;;;;;;5030009;28;20464;-50
2023/02/23 13:43:16;;;;;;;5.67;5.00;;;19.60;49.80;;;;;;5030315;28;20436;-51
2023/02/23 13:45:54;;;;;;;8.80;5.70;;;19.70;49.80;;;;;;5029947;28;20432;-51
2023/02/23 13:48:31;;;;;;;9.23;6.83;;;19.70;49.70;;;;;;5033231;28;20438;-50
2023/02/23 13:51:36;;;;;;;7.87;6.17;;;19.60;49.80;;;;;;5034588;28;20436;-50
2023/02/23 13:54:25;;;;;;;6.60;5.20;;;19.60;49.80;;;;;;5032202;28;20444;-49
2023/02/23 13:56:55;;;;;;;5.73;4.70;;;19.70;50.00;;;;;;5034064;28;20493;-49
2023/02/23 13:59:28;;;;;;;5.50;4.97;;;19.70;49.70;;;;;;5034202;28;20794;-50
2023/02/23 14:01:54;;;;;;;9.63;4.37;;;19.70;49.50;;;;;;5033934;28;20439;-50
2023/02/23 14:04:25;;;;;;;7.47;5.17;;;19.60;49.30;;;;;;5033607;28;20432;-52
2023/02/23 14:06:58;;;;;;;8.13;4.80;;;19.60;49.30;;;;;;5049581;28;20489;-49